Time;durP1;ratioP1;P1;durP2;ratioP2;P2;SDS_P1;SDS_P2;PMS_P1;PMS_P2;Temp;Humidity;BMP_temperature;BMP_pressure;BME280_temperature;BME280_humidity;BME280_pressure;Samples;Min_cycle;Max_cycle;Signal;HPM_P1;HPM_P2
2024/02/26 00:02:15;;;;;;;11.98;3.92;;;10.20;99.90;;;;;;5023328;28;20028;-88
2024/02/26 00:04:40;;;;;;;5.82;3.38;;;10.20;99.90;;;;;;5020452;28;20022;-89
2024/02/26 00:07:06;;;;;;;3.90;3.00;;;10.20;99.90;;;;;;5020575;28;20512;-89
2024/02/26 00:09:35;;;;;;;6.43;3.38;;;10.20;99.90;;;;;;5023312;28;20022;-88
2024/02/26 00:12:01;;;;;;;6.63;3.33;;;10.20;99.90;;;;;;5028535;28;20064;-88
2024/02/26 00:14:27;;;;;;;6.40;3.42;;;10.20;99.90;;;;;;5028232;28;20056;-89
2024/02/26 00:16:52;;;;;;;4.50;3.42;;;10.20;99.90;;;;;;5030242;28;20099;-88
2024/02/26 00:19:18;;;;;;;5.88;3.67;;;10.20;99.90;;;;;;5018504;28;20022;-89
2024/02/26 00:21:43;;;;;;;5.35;3.40;;;10.10;99.90;;;;;;5019532;28;20571;-89
2024/02/26 00:24:09;;;;;;;5.47;3.38;;;10.20;99.90;;;;;;5014838;28;20530;-89
2024/02/26 00:26:34;;;;;;;8.00;3.22;;;10.10;99.90;;;;;;5013386;28;20026;-88
2024/02/26 00:29:00;;;;;;;4.00;3.10;;;10.20;99.90;;;;;;5020036;28;20072;-88
2024/02/26 00:31:25;;;;;;;8.80;3.88;;;10.20;99.90;;;;;;5034789;28;20411;-89
2024/02/26 00:33:51;;;;;;;5.05;3.05;;;10.20;99.90;;;;;;5034494;28;20502;-89
2024/02/26 00:36:18;;;;;;;4.10;2.80;;;10.20;99.90;;;;;;5032130;28;20034;-89
2024/02/26 00:38:44;;;;;;;4.72;3.38;;;10.20;99.90;;;;;;5030172;28;20087;-90
2024/02/26 00:41:10;;;;;;;5.47;3.47;;;10.20;99.90;;;;;;5026181;28;20068;-88
2024/02/26 00:43:38;;;;;;;8.88;3.92;;;10.20;99.90;;;;;;5032577;28;20021;-87
2024/02/26 00:46:03;;;;;;;6.45;3.58;;;10.10;99.90;;;;;;5032055;28;20032;-89
2024/02/26 00:48:29;;;;;;;6.20;3.28;;;10.10;99.90;;;;;;5029411;28;20026;-88
2024/02/26 00:50:54;;;;;;;5.30;3.25;;;10.10;99.90;;;;;;5025803;28;20034;-88
2024/02/26 00:53:20;;;;;;;6.00;3.20;;;10.20;99.90;;;;;;5019042;28;20027;-89
2024/02/26 00:55:45;;;;;;;6.35;4.03;;;10.10;99.90;;;;;;5021597;28;20087;-88
2024/02/26 00:58:11;;;;;;;7.80;3.85;;;10.10;99.90;;;;;;5023094;28;20022;-88
2024/02/26 01:00:37;;;;;;;7.10;3.65;;;10.10;99.90;;;;;;5025966;28;20014;-89
2024/02/26 01:03:03;;;;;;;4.80;3.20;;;10.10;99.90;;;;;;5028793;28;20097;-88
2024/02/26 01:05:29;;;;;;;4.43;3.35;;;10.10;99.90;;;;;;5031008;28;20555;-88
2024/02/26 01:07:54;;;;;;;7.25;3.53;;;10.10;99.90;;;;;;5026824;28;20126;-88
2024/02/26 01:10:20;;;;;;;6.70;3.85;;;10.10;99.90;;;;;;5018001;28;20512;-88
2024/02/26 01:12:45;;;;;;;5.18;3.53;;;10.10;99.90;;;;;;5019989;28;20101;-87
2024/02/26 01:15:11;;;;;;;5.95;3.25;;;10.10;99.90;;;;;;5018842;28;20021;-88
2024/02/26 01:17:37;;;;;;;4.45;3.28;;;10.10;99.90;;;;;;5016093;28;20022;-88
2024/02/26 01:20:02;;;;;;;10.05;3.75;;;10.10;99.90;;;;;;5023078;28;20476;-88
2024/02/26 01:22:28;;;;;;;9.80;3.67;;;10.10;99.90;;;;;;5020377;28;20056;-88
2024/02/26 01:24:54;;;;;;;10.43;4.25;;;10.10;99.90;;;;;;5032240;28;20499;-89
2024/02/26 01:27:19;;;;;;;6.18;3.90;;;10.10;99.90;;;;;;5033028;28;20083;-88
2024/02/26 01:29:45;;;;;;;11.38;4.03;;;10.10;99.90;;;;;;5029184;28;20040;-88
2024/02/26 01:32:10;;;;;;;7.60;4.13;;;10.10;99.90;;;;;;5030560;28;20025;-88
2024/02/26 01:34:36;;;;;;;5.13;3.20;;;10.10;99.90;;;;;;5022593;28;20033;-89
2024/02/26 01:37:02;;;;;;;6.00;4.22;;;10.10;99.90;;;;;;5028870;28;20021;-88
2024/02/26 01:39:30;;;;;;;5.85;3.70;;;10.10;99.90;;;;;;5028810;28;20490;-89
2024/02/26 01:41:55;;;;;;;7.85;4.35;;;10.10;99.90;;;;;;5014858;28;20065;-88
2024/02/26 01:44:21;;;;;;;10.85;4.68;;;10.10;99.90;;;;;;5029913;28;20492;-89
2024/02/26 01:46:48;;;;;;;6.10;3.90;;;10.10;99.90;;;;;;5022157;28;20046;-89
2024/02/26 01:49:14;;;;;;;9.20;4.15;;;10.10;99.90;;;;;;5020676;28;20018;-89
2024/02/26 01:51:42;;;;;;;5.40;3.53;;;10.10;99.90;;;;;;5025737;28;20049;-89
2024/02/26 01:54:08;;;;;;;6.43;3.72;;;10.10;99.90;;;;;;5023246;28;20550;-89
2024/02/26 01:56:35;;;;;;;6.60;3.90;;;10.10;99.90;;;;;;5021072;28;20026;-89
2024/02/26 01:59:02;;;;;;;10.60;4.68;;;10.10;99.90;;;;;;5033676;28;20475;-90
2024/02/26 02:01:31;;;;;;;5.18;3.80;;;10.10;99.90;;;;;;5019221;28;20021;-88
2024/02/26 02:03:58;;;;;;;7.57;4.10;;;10.10;99.90;;;;;;5026423;28;20018;-88
2024/02/26 02:06:24;;;;;;;11.77;4.65;;;10.10;99.90;;;;;;5028064;28;20068;-90
2024/02/26 02:08:50;;;;;;;8.85;4.80;;;10.10;99.90;;;;;;5025165;28;20033;-89
2024/02/26 02:11:17;;;;;;;6.88;3.83;;;10.10;99.90;;;;;;5030930;28;20535;-89
2024/02/26 02:13:42;;;;;;;6.95;4.05;;;10.10;99.90;;;;;;5027683;28;20021;-89
2024/02/26 02:16:08;;;;;;;8.10;4.30;;;10.10;99.90;;;;;;5030633;28;20387;-89
2024/02/26 02:18:34;;;;;;;8.15;4.55;;;10.10;99.90;;;;;;5029258;28;20022;-88
2024/02/26 02:21:03;;;;;;;6.65;4.30;;;10.10;99.90;;;;;;5023190;28;20021;-89
2024/02/26 02:23:29;;;;;;;9.48;4.70;;;10.10;99.90;;;;;;5033671;28;20079;-89
2024/02/26 02:25:56;;;;;;;8.93;4.28;;;10.10;99.90;;;;;;5032804;28;20021;-89
2024/02/26 02:28:22;;;;;;;7.95;4.82;;;10.10;99.90;;;;;;5027177;28;20375;-89
2024/02/26 02:30:48;;;;;;;9.15;5.30;;;10.10;99.90;;;;;;5023391;28;20018;-89
2024/02/26 02:33:15;;;;;;;7.40;4.53;;;10.10;99.90;;;;;;5032497;28;20827;-87
2024/02/26 02:35:41;;;;;;;8.88;5.10;;;10.10;99.90;;;;;;5029445;28;20096;-86
2024/02/26 02:38:06;;;;;;;7.82;4.65;;;10.10;99.90;;;;;;5012811;28;20021;-89
2024/02/26 02:40:32;;;;;;;9.38;4.95;;;10.10;99.90;;;;;;5023852;28;20021;-89
2024/02/26 02:42:58;;;;;;;8.30;4.82;;;10.10;99.90;;;;;;5030377;28;20070;-89
2024/02/26 02:45:24;;;;;;;10.27;4.85;;;10.10;99.90;;;;;;5024338;28;20022;-89
2024/02/26 02:47:49;;;;;;;10.00;5.00;;;10.10;99.90;;;;;;5019465;28;20030;-88
2024/02/26 02:50:15;;;;;;;6.50;4.72;;;10.10;99.90;;;;;;5012793;28;20029;-89
2024/02/26 02:52:40;;;;;;;9.15;5.05;;;10.10;99.90;;;;;;5024856;28;20029;-88
2024/02/26 02:55:06;;;;;;;8.30;5.00;;;10.10;99.90;;;;;;5031931;28;20025;-89
2024/02/26 02:57:33;;;;;;;8.50;5.25;;;10.10;99.90;;;;;;5016800;28;20033;-88
2024/02/26 02:59:58;;;;;;;9.43;5.47;;;10.10;99.90;;;;;;5023058;28;20018;-89
2024/02/26 03:02:26;;;;;;;7.53;4.95;;;10.10;99.90;;;;;;5026375;28;20029;-89
2024/02/26 03:04:52;;;;;;;7.72;4.97;;;10.10;99.90;;;;;;5019885;28;20018;-87
2024/02/26 03:07:17;;;;;;;10.48;5.35;;;10.10;99.90;;;;;;5038511;28;20662;-89
2024/02/26 03:09:43;;;;;;;8.50;5.05;;;10.10;99.90;;;;;;5028596;28;20032;-88
2024/02/26 03:12:09;;;;;;;13.98;5.35;;;10.10;99.90;;;;;;5030621;28;20018;-89
2024/02/26 03:14:34;;;;;;;7.80;4.85;;;10.10;99.90;;;;;;5031390;28;20049;-88
2024/02/26 03:17:01;;;;;;;10.45;5.30;;;10.00;99.90;;;;;;5024685;28;20121;-89
2024/02/26 03:19:26;;;;;;;10.15;5.38;;;10.10;99.90;;;;;;5044519;28;20020;-89
2024/02/26 03:21:52;;;;;;;11.00;5.28;;;10.10;99.90;;;;;;5027356;28;20560;-88
2024/02/26 03:24:17;;;;;;;8.50;4.70;;;10.00;99.90;;;;;;5025751;28;20100;-88
2024/02/26 03:26:43;;;;;;;11.00;5.70;;;10.10;99.90;;;;;;5024204;28;20112;-88
2024/02/26 03:29:08;;;;;;;9.32;5.00;;;10.00;99.90;;;;;;5013009;28;20053;-87
2024/02/26 03:31:34;;;;;;;9.20;5.15;;;10.00;99.90;;;;;;5025243;28;20022;-88
2024/02/26 03:33:59;;;;;;;8.48;4.72;;;10.00;99.90;;;;;;5022222;28;20061;-88
2024/02/26 03:36:25;;;;;;;8.82;5.03;;;10.10;99.90;;;;;;5025733;28;20048;-88
2024/02/26 03:38:51;;;;;;;9.82;5.53;;;10.10;99.90;;;;;;5015877;28;20034;-87
2024/02/26 03:41:16;;;;;;;7.32;4.60;;;10.10;99.90;;;;;;5031389;28;20021;-89
2024/02/26 03:43:42;;;;;;;9.18;5.68;;;10.10;99.90;;;;;;5023056;28;20487;-88
2024/02/26 03:46:09;;;;;;;12.23;5.80;;;10.10;99.90;;;;;;5028050;28;20552;-88
2024/02/26 03:48:35;;;;;;;9.45;4.95;;;10.10;99.90;;;;;;5027895;28;20087;-88
2024/02/26 03:51:01;;;;;;;9.32;5.55;;;10.10;99.90;;;;;;5016698;28;20574;-88
2024/02/26 03:53:26;;;;;;;8.68;5.18;;;10.10;99.90;;;;;;5026502;28;20068;-88
2024/02/26 03:55:52;;;;;;;11.40;5.20;;;10.10;99.90;;;;;;5030735;28;20052;-89
2024/02/26 03:58:18;;;;;;;10.55;5.00;;;10.00;99.90;;;;;;5030862;28;20021;-89
2024/02/26 04:00:44;;;;;;;11.43;5.20;;;10.00;99.90;;;;;;5022924;28;20022;-88
2024/02/26 04:03:09;;;;;;;8.80;5.35;;;10.00;99.90;;;;;;5030842;28;20095;-88
2024/02/26 04:05:35;;;;;;;8.30;4.93;;;10.00;99.90;;;;;;5025770;28;20038;-88
2024/02/26 04:08:01;;;;;;;14.77;5.20;;;10.00;99.90;;;;;;5015144;28;20025;-87
2024/02/26 04:10:26;;;;;;;9.68;5.32;;;10.00;99.90;;;;;;5029136;28;20056;-88
2024/02/26 04:12:52;;;;;;;9.20;4.85;;;10.00;99.90;;;;;;5028814;28;20030;-88
2024/02/26 04:15:17;;;;;;;10.07;5.18;;;10.00;99.90;;;;;;5038940;28;20026;-88
2024/02/26 04:17:43;;;;;;;8.32;4.88;;;10.00;99.90;;;;;;5033499;28;20024;-88
2024/02/26 04:20:14;;;;;;;8.45;4.95;;;10.10;99.90;;;;;;5019042;28;20473;-89
2024/02/26 04:22:40;;;;;;;9.63;5.45;;;10.00;99.90;;;;;;5032052;28;20713;-89
2024/02/26 04:25:05;;;;;;;8.52;5.63;;;10.00;99.90;;;;;;5025930;28;20030;-88
2024/02/26 04:27:31;;;;;;;11.25;5.75;;;10.10;99.90;;;;;;5025118;28;20116;-88
2024/02/26 04:29:56;;;;;;;10.30;5.05;;;10.00;99.90;;;;;;5027719;28;20063;-88
2024/02/26 04:32:22;;;;;;;8.50;5.03;;;10.00;99.90;;;;;;5016042;28;20104;-88
2024/02/26 04:34:48;;;;;;;9.15;5.43;;;10.00;99.90;;;;;;5027421;28;20061;-88
2024/02/26 04:37:13;;;;;;;11.95;5.25;;;10.10;99.90;;;;;;5035562;28;20442;-86
2024/02/26 04:39:39;;;;;;;9.30;4.82;;;10.10;99.90;;;;;;5031085;28;20409;-88
2024/02/26 04:42:04;;;;;;;12.38;5.50;;;10.00;99.90;;;;;;5027478;28;20048;-88
2024/02/26 04:44:30;;;;;;;8.32;4.78;;;10.00;99.90;;;;;;5023912;28;20021;-88
2024/02/26 04:46:56;;;;;;;10.88;4.97;;;10.00;99.90;;;;;;5022771;28;20033;-89
2024/02/26 04:49:22;;;;;;;14.82;5.47;;;10.00;99.90;;;;;;5018774;28;20084;-88
2024/02/26 04:51:48;;;;;;;11.75;5.00;;;10.00;99.90;;;;;;5025740;28;20479;-89
2024/02/26 04:54:13;;;;;;;8.57;4.93;;;10.00;99.90;;;;;;5028067;28;20112;-88
2024/02/26 04:56:39;;;;;;;10.13;5.28;;;10.00;99.90;;;;;;5026011;28;20101;-89
2024/02/26 04:59:04;;;;;;;10.18;5.40;;;10.00;99.90;;;;;;5025854;28;20022;-89
2024/02/26 05:01:30;;;;;;;9.07;5.55;;;10.00;99.90;;;;;;5021445;28;20091;-88
2024/02/26 05:03:56;;;;;;;8.00;4.97;;;10.00;99.90;;;;;;5033812;28;20044;-89
2024/02/26 05:06:21;;;;;;;10.13;5.90;;;10.00;99.90;;;;;;5033761;28;20570;-86
2024/02/26 05:08:47;;;;;;;9.25;5.55;;;10.00;99.90;;;;;;5033804;28;20053;-88
2024/02/26 05:11:12;;;;;;;8.43;5.45;;;10.00;99.90;;;;;;5032401;28;20076;-89
2024/02/26 05:13:38;;;;;;;11.00;5.05;;;10.00;99.90;;;;;;5032449;28;20026;-88
2024/02/26 05:16:03;;;;;;;7.63;4.53;;;10.00;99.90;;;;;;5026101;28;20380;-88
2024/02/26 05:18:29;;;;;;;9.52;5.18;;;10.00;99.90;;;;;;5023994;28;20435;-89
2024/02/26 05:20:55;;;;;;;11.55;5.32;;;10.00;99.90;;;;;;5026461;28;20022;-89
2024/02/26 05:23:20;;;;;;;12.30;5.90;;;10.00;99.90;;;;;;5027783;28;20014;-88
2024/02/26 05:25:47;;;;;;;9.65;5.20;;;10.00;99.90;;;;;;5034671;28;20759;-89
2024/02/26 05:28:15;;;;;;;9.82;6.00;;;10.00;99.90;;;;;;5029566;28;20502;-88
2024/02/26 05:30:41;;;;;;;10.88;5.60;;;10.00;99.90;;;;;;5024965;28;20480;-88
2024/02/26 05:33:06;;;;;;;8.30;5.60;;;10.00;99.90;;;;;;5013630;28;20029;-89
2024/02/26 05:35:32;;;;;;;9.55;5.00;;;10.00;99.90;;;;;;5015904;28;20030;-88
2024/02/26 05:37:57;;;;;;;10.73;5.32;;;10.00;99.90;;;;;;5021749;28;20484;-89
2024/02/26 05:40:23;;;;;;;9.15;5.13;;;10.00;99.90;;;;;;5030012;28;20053;-89
2024/02/26 05:42:49;;;;;;;10.10;5.40;;;10.00;99.90;;;;;;5029978;28;20056;-88
2024/02/26 05:45:14;;;;;;;9.60;5.20;;;10.00;99.90;;;;;;5027756;28;20117;-88
2024/02/26 05:47:42;;;;;;;11.02;5.38;;;10.00;99.90;;;;;;5027891;28;20026;-89
2024/02/26 05:50:10;;;;;;;11.63;5.28;;;10.00;99.90;;;;;;5019480;28;20026;-88
2024/02/26 05:52:39;;;;;;;12.70;5.47;;;10.00;99.90;;;;;;5017836;28;20025;-89
2024/02/26 05:55:05;;;;;;;13.85;6.40;;;10.00;99.90;;;;;;5022999;28;20026;-88
2024/02/26 05:57:31;;;;;;;10.93;5.55;;;10.00;99.90;;;;;;5017495;28;20026;-88
2024/02/26 06:00:00;;;;;;;12.13;6.40;;;10.00;99.90;;;;;;5023971;28;20026;-88
2024/02/26 06:02:26;;;;;;;10.45;6.07;;;9.90;99.90;;;;;;5025505;28;20025;-88
2024/02/26 06:04:51;;;;;;;9.55;5.72;;;9.90;99.90;;;;;;5028483;28;20537;-89
2024/02/26 06:07:17;;;;;;;10.80;6.38;;;9.90;99.90;;;;;;5039364;28;20022;-88
2024/02/26 06:09:42;;;;;;;10.95;5.85;;;9.90;99.90;;;;;;5038656;28;20491;-89
2024/02/26 06:12:08;;;;;;;8.52;5.68;;;9.90;99.90;;;;;;5027092;28;20017;-89
2024/02/26 06:14:34;;;;;;;13.07;6.93;;;9.90;99.90;;;;;;5020024;28;20030;-89
2024/02/26 06:16:59;;;;;;;14.77;7.38;;;9.90;99.90;;;;;;5024685;28;20037;-88
2024/02/26 06:19:25;;;;;;;17.63;7.50;;;9.90;99.90;;;;;;5022413;28;20030;-87
2024/02/26 06:21:50;;;;;;;13.63;7.70;;;9.90;99.90;;;;;;5018945;28;20022;-87
2024/02/26 06:24:16;;;;;;;15.18;7.45;;;9.90;99.90;;;;;;5023334;28;20499;-88
2024/02/26 06:26:42;;;;;;;13.48;7.18;;;9.90;99.90;;;;;;5020413;28;20033;-89
2024/02/26 06:29:07;;;;;;;14.13;7.38;;;10.00;99.90;;;;;;5025654;28;20025;-89
2024/02/26 06:31:33;;;;;;;14.07;7.47;;;9.90;99.90;;;;;;5022154;28;20034;-88
2024/02/26 06:33:58;;;;;;;16.05;7.22;;;9.90;99.90;;;;;;5029852;28;20034;-89
2024/02/26 06:36:24;;;;;;;15.68;7.55;;;9.90;99.90;;;;;;5023408;28;20029;-89
2024/02/26 06:38:49;;;;;;;13.80;7.65;;;9.90;99.90;;;;;;5014720;28;20719;-89
2024/02/26 06:41:15;;;;;;;22.10;8.45;;;9.90;99.90;;;;;;5018643;28;20024;-88
2024/02/26 06:43:41;;;;;;;16.10;8.27;;;9.90;99.90;;;;;;5025223;28;20032;-88
2024/02/26 06:46:07;;;;;;;19.15;8.88;;;9.90;99.90;;;;;;5026773;28;20026;-90
2024/02/26 06:48:32;;;;;;;16.52;8.35;;;9.90;99.90;;;;;;5023697;28;20026;-88
2024/02/26 06:50:58;;;;;;;18.10;8.65;;;9.90;99.90;;;;;;5017811;28;20041;-89
2024/02/26 06:53:23;;;;;;;16.88;8.55;;;9.90;99.90;;;;;;5020519;28;20021;-89
2024/02/26 06:55:50;;;;;;;15.98;8.13;;;9.90;99.90;;;;;;5025911;28;20032;-89
2024/02/26 06:58:15;;;;;;;15.85;8.25;;;9.90;99.90;;;;;;5013902;28;20026;-89
2024/02/26 07:00:41;;;;;;;18.60;9.38;;;9.90;99.90;;;;;;5017879;28;20033;-89
2024/02/26 07:03:06;;;;;;;18.50;9.25;;;9.90;99.90;;;;;;5035878;28;20009;-89
2024/02/26 07:05:32;;;;;;;19.15;8.25;;;9.90;99.90;;;;;;5035882;28;20483;-88
2024/02/26 07:07:57;;;;;;;14.57;7.63;;;10.00;99.90;;;;;;5016808;28;20487;-88
2024/02/26 07:10:23;;;;;;;24.25;9.13;;;10.00;99.90;;;;;;5019006;28;20408;-88
2024/02/26 07:12:48;;;;;;;17.77;8.27;;;10.00;99.90;;;;;;5018398;28;20458;-88
2024/02/26 07:15:14;;;;;;;17.08;8.13;;;10.00;99.90;;;;;;5024110;28;20568;-88
2024/02/26 07:17:41;;;;;;;17.38;8.27;;;10.00;99.90;;;;;;5019457;28;20496;-88
2024/02/26 07:20:08;;;;;;;17.35;8.38;;;10.00;99.90;;;;;;5028171;28;20053;-89
2024/02/26 07:22:34;;;;;;;20.23;8.38;;;10.00;99.90;;;;;;5020940;28;20022;-88
2024/02/26 07:24:59;;;;;;;20.08;9.27;;;10.00;99.90;;;;;;5025487;28;20017;-89
2024/02/26 07:27:25;;;;;;;19.40;8.95;;;10.00;99.90;;;;;;5018124;28;20129;-88
2024/02/26 07:29:51;;;;;;;18.90;9.80;;;10.00;99.90;;;;;;5018542;28;20049;-87
2024/02/26 07:32:16;;;;;;;16.77;8.70;;;10.00;99.90;;;;;;5024595;28;20040;-89
2024/02/26 07:34:44;;;;;;;16.45;9.52;;;10.00;99.90;;;;;;5012366;28;20550;-88
2024/02/26 07:37:10;;;;;;;16.40;8.75;;;10.00;99.90;;;;;;5022232;28;20520;-89
2024/02/26 07:39:36;;;;;;;20.80;10.15;;;10.00;99.90;;;;;;5014604;28;20049;-88
2024/02/26 07:42:02;;;;;;;17.77;9.07;;;10.10;99.90;;;;;;5019081;28;20029;-88
2024/02/26 07:44:27;;;;;;;18.95;9.00;;;10.10;99.90;;;;;;5018557;28;20376;-88
2024/02/26 07:46:53;;;;;;;20.70;9.40;;;10.10;99.90;;;;;;5026513;28;20487;-88
2024/02/26 07:49:19;;;;;;;18.88;8.52;;;10.10;99.90;;;;;;5020564;28;20498;-88
2024/02/26 07:51:44;;;;;;;20.35;9.35;;;10.00;99.90;;;;;;5019807;28;20515;-90
2024/02/26 07:54:10;;;;;;;18.65;9.70;;;10.00;99.90;;;;;;5019161;28;20103;-88
2024/02/26 07:56:35;;;;;;;16.63;8.80;;;10.00;99.90;;;;;;5028403;28;20073;-88
2024/02/26 07:59:01;;;;;;;17.65;9.40;;;10.10;99.90;;;;;;5033348;28;20445;-88
2024/02/26 08:01:26;;;;;;;19.13;9.40;;;10.10;99.90;;;;;;5034139;28;20077;-87
2024/02/26 08:03:53;;;;;;;20.52;9.85;;;10.10;99.90;;;;;;5012416;28;20088;-88
2024/02/26 08:06:19;;;;;;;19.67;9.43;;;10.10;99.90;;;;;;5018574;28;20117;-88
2024/02/26 08:08:45;;;;;;;18.92;9.77;;;10.10;99.90;;;;;;5021099;28;20470;-89
2024/02/26 08:11:10;;;;;;;15.05;8.80;;;10.10;99.90;;;;;;5026612;28;20013;-89
2024/02/26 08:13:36;;;;;;;17.17;7.90;;;10.10;99.90;;;;;;5018096;28;20033;-88
2024/02/26 08:16:01;;;;;;;18.10;9.23;;;10.20;99.90;;;;;;5020782;28;20492;-88
2024/02/26 08:18:27;;;;;;;17.33;9.43;;;10.20;99.90;;;;;;5024992;28;20049;-88
2024/02/26 08:20:53;;;;;;;19.33;9.43;;;10.10;99.90;;;;;;5017098;28;20116;-87
2024/02/26 08:23:18;;;;;;;16.55;8.70;;;10.10;99.90;;;;;;5015092;28;20053;-88
2024/02/26 08:25:44;;;;;;;18.20;9.23;;;10.10;99.90;;;;;;5017735;28;20037;-88
2024/02/26 08:28:13;;;;;;;17.70;9.63;;;10.10;99.90;;;;;;5030325;28;20109;-88
2024/02/26 08:30:38;;;;;;;21.92;9.43;;;10.10;99.90;;;;;;5020176;28;20025;-89
2024/02/26 08:33:04;;;;;;;19.35;8.82;;;10.10;99.90;;;;;;5018256;28;20080;-89
2024/02/26 08:35:29;;;;;;;19.83;9.43;;;10.10;99.90;;;;;;5015692;28;20030;-88
2024/02/26 08:37:55;;;;;;;19.42;9.68;;;10.10;99.90;;;;;;5024001;28;20119;-88
2024/02/26 08:40:21;;;;;;;22.20;9.73;;;10.10;99.90;;;;;;5020577;28;20018;-88
2024/02/26 08:42:46;;;;;;;20.63;10.00;;;10.10;99.90;;;;;;5018558;28;20108;-88
2024/02/26 08:45:15;;;;;;;18.27;8.90;;;10.10;99.90;;;;;;5023397;28;20042;-88
2024/02/26 08:47:40;;;;;;;20.95;9.65;;;10.10;99.90;;;;;;5013763;28;20117;-88
2024/02/26 08:50:06;;;;;;;18.42;9.15;;;10.10;99.90;;;;;;5023654;28;20128;-88
2024/02/26 08:52:33;;;;;;;17.38;8.85;;;10.10;99.90;;;;;;5033284;28;20030;-88
2024/02/26 08:54:58;;;;;;;18.63;9.07;;;10.10;99.90;;;;;;5034164;28;20155;-88
2024/02/26 08:57:27;;;;;;;17.25;8.45;;;10.10;99.90;;;;;;5032389;28;20074;-88
2024/02/26 08:59:52;;;;;;;18.88;9.73;;;10.10;99.90;;;;;;5026870;28;20022;-88
2024/02/26 09:02:19;;;;;;;15.93;8.50;;;10.10;99.90;;;;;;5030383;28;20502;-90
2024/02/26 09:04:45;;;;;;;17.58;8.25;;;10.10;99.90;;;;;;5023269;28;20018;-89
2024/02/26 09:07:10;;;;;;;17.42;8.25;;;10.10;99.90;;;;;;5032242;28;20395;-88
2024/02/26 09:09:36;;;;;;;20.95;9.45;;;10.10;99.90;;;;;;5033665;28;20031;-88
2024/02/26 09:12:02;;;;;;;14.90;8.00;;;10.20;99.90;;;;;;5025719;28;20483;-87
2024/02/26 09:14:28;;;;;;;18.50;8.40;;;10.20;99.90;;;;;;5017777;28;20492;-88
2024/02/26 09:16:53;;;;;;;17.85;8.38;;;10.20;99.90;;;;;;5021634;28;20117;-88
2024/02/26 09:19:19;;;;;;;23.55;8.70;;;10.20;99.90;;;;;;5033078;28;20100;-87
2024/02/26 09:21:45;;;;;;;15.43;8.63;;;10.20;99.90;;;;;;5017434;28;20026;-88
2024/02/26 09:24:11;;;;;;;17.88;8.00;;;10.20;99.90;;;;;;5028746;28;20726;-88
2024/02/26 09:26:37;;;;;;;18.33;7.50;;;10.20;99.90;;;;;;5016818;28;20026;-88
2024/02/26 09:29:04;;;;;;;20.45;9.65;;;10.20;99.90;;;;;;5022913;28;20026;-88
2024/02/26 09:31:30;;;;;;;16.30;8.52;;;10.20;99.90;;;;;;5022329;28;20112;-89
2024/02/26 09:33:55;;;;;;;18.98;8.55;;;10.20;99.90;;;;;;5019124;28;20026;-88
2024/02/26 09:36:21;;;;;;;15.73;7.45;;;10.20;99.90;;;;;;5030632;28;20017;-89
2024/02/26 09:38:47;;;;;;;16.58;7.97;;;10.20;99.90;;;;;;5023133;28;20018;-88
2024/02/26 09:41:16;;;;;;;17.92;8.20;;;10.20;99.90;;;;;;5025972;28;20934;-88
2024/02/26 09:43:44;;;;;;;14.35;7.45;;;10.30;99.90;;;;;;5028059;28;20022;-89
2024/02/26 09:46:10;;;;;;;11.75;7.68;;;10.50;99.90;;;;;;5029317;28;20053;-91
2024/02/26 09:48:37;;;;;;;16.77;8.43;;;10.70;99.90;;;;;;5033422;28;20033;-89
2024/02/26 09:51:04;;;;;;;17.13;7.38;;;11.00;99.90;;;;;;5029391;28;20029;-89
2024/02/26 09:53:31;;;;;;;15.65;7.55;;;11.10;99.90;;;;;;5031845;28;20025;-88
2024/02/26 09:55:57;;;;;;;13.75;7.13;;;11.10;99.90;;;;;;5028863;28;20021;-89
2024/02/26 09:58:24;;;;;;;14.20;7.47;;;10.90;99.90;;;;;;5020437;28;20010;-88
2024/02/26 10:00:58;;;;;;;16.08;6.47;;;10.80;99.90;;;;;;5028248;28;20112;-89
2024/02/26 10:03:34;;;;;;;13.05;7.38;;;10.80;99.90;;;;;;5031528;28;20108;-88
2024/02/26 10:06:02;;;;;;;13.45;6.80;;;11.10;99.90;;;;;;5032073;28;20092;-91
2024/02/26 10:08:29;;;;;;;12.68;6.97;;;11.30;99.90;;;;;;5032029;28;20022;-88
2024/02/26 10:10:55;;;;;;;8.52;4.50;;;11.50;99.90;;;;;;5014622;28;20014;-89
2024/02/26 10:13:21;;;;;;;10.63;5.97;;;11.60;99.90;;;;;;5032748;28;20497;-90
2024/02/26 10:15:46;;;;;;;13.27;6.43;;;11.50;99.90;;;;;;5029344;28;20021;-90
2024/02/26 10:18:12;;;;;;;15.20;6.00;;;11.30;99.90;;;;;;5025079;28;20017;-90
2024/02/26 10:20:37;;;;;;;12.93;5.47;;;11.30;99.90;;;;;;5033044;28;20063;-89
2024/02/26 10:23:04;;;;;;;10.90;6.22;;;11.20;99.90;;;;;;5032778;28;20017;-89
2024/02/26 10:25:33;;;;;;;12.60;6.20;;;11.20;99.90;;;;;;5021073;28;20074;-89
2024/02/26 10:28:03;;;;;;;9.70;5.00;;;11.30;99.90;;;;;;5028556;28;20040;-88
2024/02/26 10:30:30;;;;;;;9.55;5.03;;;11.40;99.90;;;;;;5032962;28;20152;-88
2024/02/26 10:32:56;;;;;;;10.07;5.30;;;11.60;99.90;;;;;;5020473;28;20124;-88
2024/02/26 10:35:22;;;;;;;10.18;5.28;;;11.80;99.90;;;;;;5023291;28;20033;-89
2024/02/26 10:37:48;;;;;;;11.20;5.28;;;11.90;99.90;;;;;;5029716;28;20048;-88
2024/02/26 10:40:15;;;;;;;9.00;4.72;;;11.90;99.90;;;;;;5018639;28;20060;-89
2024/02/26 10:42:42;;;;;;;7.47;4.00;;;11.80;99.90;;;;;;5012844;28;20022;-89
2024/02/26 10:45:09;;;;;;;12.73;5.45;;;11.70;99.90;;;;;;5019048;28;20018;-88
2024/02/26 10:47:36;;;;;;;10.25;4.88;;;11.60;99.90;;;;;;5037731;28;20021;-89
2024/02/26 10:50:04;;;;;;;11.93;5.60;;;11.60;99.90;;;;;;5041353;28;20028;-88
2024/02/26 10:52:33;;;;;;;8.65;5.40;;;11.50;99.90;;;;;;5021651;28;20026;-89
2024/02/26 10:55:04;;;;;;;14.05;5.28;;;11.40;99.90;;;;;;5024289;28;20578;-89
2024/02/26 10:57:41;;;;;;;7.18;4.60;;;11.30;99.90;;;;;;5020596;28;20025;-89
2024/02/26 11:00:10;;;;;;;9.85;5.07;;;11.30;99.90;;;;;;5026275;28;20017;-89
2024/02/26 11:02:36;;;;;;;11.93;5.70;;;11.30;99.90;;;;;;5023221;28;20024;-89
2024/02/26 11:05:06;;;;;;;9.73;5.38;;;11.20;99.90;;;;;;5031321;28;20048;-89
2024/02/26 11:07:32;;;;;;;11.48;6.03;;;11.10;99.90;;;;;;5028924;28;20116;-89
2024/02/26 11:10:01;;;;;;;13.15;6.55;;;11.10;99.90;;;;;;5024974;28;20026;-89
2024/02/26 11:12:31;;;;;;;12.95;6.38;;;11.10;99.90;;;;;;5023260;28;20032;-89
2024/02/26 11:14:58;;;;;;;12.75;5.65;;;11.00;99.90;;;;;;5021076;28;20124;-89
2024/02/26 11:17:27;;;;;;;9.63;5.65;;;11.00;99.90;;;;;;5031732;28;20025;-89
2024/02/26 11:19:55;;;;;;;12.95;6.03;;;10.90;99.90;;;;;;5022885;28;20055;-89
2024/02/26 11:22:21;;;;;;;10.70;5.85;;;10.90;99.90;;;;;;5024656;28;20018;-89
2024/02/26 11:24:48;;;;;;;11.48;6.13;;;10.90;99.90;;;;;;5038466;28;20013;-89
2024/02/26 11:27:17;;;;;;;13.50;6.28;;;10.90;99.90;;;;;;5024375;28;20121;-88
2024/02/26 11:29:50;;;;;;;11.40;5.70;;;10.90;99.90;;;;;;5021714;28;20105;-89
2024/02/26 11:32:16;;;;;;;12.55;5.55;;;11.00;99.90;;;;;;5023349;28;20037;-88
2024/02/26 11:34:42;;;;;;;10.85;6.22;;;11.00;99.90;;;;;;5017298;28;20030;-88
2024/02/26 11:37:13;;;;;;;9.50;5.57;;;10.90;99.90;;;;;;5024321;28;20025;-89
2024/02/26 11:39:42;;;;;;;11.00;5.97;;;10.90;99.90;;;;;;5023888;28;20013;-89
2024/02/26 11:42:08;;;;;;;14.07;6.05;;;10.80;99.90;;;;;;5014778;28;20025;-89
2024/02/26 11:44:36;;;;;;;11.20;5.15;;;10.70;99.90;;;;;;5028673;28;20021;-89
2024/02/26 11:47:21;;;;;;;11.55;6.22;;;10.70;99.90;;;;;;5048133;28;20031;-89
2024/02/26 11:49:47;;;;;;;16.40;5.95;;;10.70;99.90;;;;;;5020089;28;20040;-90
2024/02/26 11:52:14;;;;;;;17.80;6.05;;;10.70;99.90;;;;;;5026625;28;20029;-89
2024/02/26 11:54:45;;;;;;;12.25;6.63;;;10.70;99.90;;;;;;5019072;28;20029;-89
2024/02/26 11:57:30;;;;;;;11.88;6.25;;;10.60;99.90;;;;;;5025682;28;20116;-90
2024/02/26 12:00:05;;;;;;;11.48;6.05;;;10.70;99.90;;;;;;5024577;28;20100;-89
2024/02/26 12:02:43;;;;;;;12.57;6.95;;;10.70;99.90;;;;;;5026292;28;20022;-88
2024/02/26 12:05:17;;;;;;;12.50;6.57;;;10.60;99.90;;;;;;5027980;28;20089;-89
2024/02/26 12:07:52;;;;;;;13.90;6.57;;;10.60;99.90;;;;;;5023212;28;20112;-90
2024/02/26 12:10:28;;;;;;;11.18;5.65;;;10.60;99.90;;;;;;5016620;28;20480;-90
2024/02/26 12:13:07;;;;;;;14.27;6.75;;;10.60;99.90;;;;;;5026398;28;20045;-90
2024/02/26 12:15:36;;;;;;;14.93;6.95;;;10.60;99.90;;;;;;5011293;28;20030;-89
2024/02/26 12:18:03;;;;;;;12.63;6.65;;;10.60;99.90;;;;;;5013696;28;20022;-90
2024/02/26 12:20:29;;;;;;;12.82;6.43;;;10.50;99.90;;;;;;5014525;28;20476;-91
2024/02/26 12:22:56;;;;;;;11.48;6.20;;;10.50;99.90;;;;;;5027195;28;20029;-89
2024/02/26 12:25:28;;;;;;;14.15;6.28;;;10.50;99.90;;;;;;5033829;28;20024;-89
2024/02/26 12:27:54;;;;;;;14.23;6.57;;;10.50;99.90;;;;;;5023327;28;20028;-89
2024/02/26 12:30:20;;;;;;;14.07;6.82;;;10.50;99.90;;;;;;5032824;28;20022;-90
2024/02/26 12:32:48;;;;;;;11.85;6.35;;;10.50;99.90;;;;;;5035826;28;20021;-89
2024/02/26 12:35:14;;;;;;;12.00;6.70;;;10.40;99.90;;;;;;5016802;28;20026;-89
2024/02/26 12:37:40;;;;;;;12.45;6.85;;;10.50;99.90;;;;;;5030591;28;20183;-89